aviador You're here:

PATO Decoded Metar

PORTAGE GLACIER in AK, USA
Report Time2017-09-24 00:53:00
UTC Time2017-09-24 01:22:29
Flight Rules mvfr MVFR
Wind100° at 15 Gusting to 40 kt
W.Rank100° ranks 2
Current wind is above 100° avg. (10.2)
Visibility4828 m
Phenomena:Rain
Clouds:Broken 027 Hf
Overcast 034 Hf
Expected CloudBase > 1,200 ft AGL from Temp-Dew spread
Ceiling2,700 ft
Temp11°C (ISA -4)
Dew Point08°C (82% RH)
AAT5.1°C
QNH1001 hPa
Density Alt203 ft
Elevation102 ft
Report Wrong Elevation
Raw Report
PATO 240053Z AUTO 10015G40KT 3SM RA BKN027 OVC034 11/08 A2956 RMK
AO2 PK WND 11041/0016 SLP010 P0011 T01110078 TSNO=

Extra information for PATO:More info

Metar Taf Metar & Taf Last 4 Metars F.Rules Stats Wind Profile Meteogram Temp Stats Airport Information Weather charts Add Link Nearby VenuesMetar ALERT Operation Metar Decoded Social comments

AIRNAV info for PATO